createdAt,value
2019-02-04T00:02:35.802Z,91.60
2019-02-04T00:08:12.331Z,91.60
2019-02-04T00:13:47.909Z,91.60
2019-02-04T00:19:17.472Z,91.50
2019-02-04T00:24:46.812Z,91.60
2019-02-04T00:30:20.477Z,91.50
2019-02-04T00:35:49.946Z,91.50
2019-02-04T00:41:19.374Z,91.50
2019-02-04T00:46:52.379Z,91.50
2019-02-04T00:52:20.238Z,91.50
2019-02-04T00:57:49.728Z,91.40
2019-02-04T01:03:19.283Z,91.40
2019-02-04T01:08:57.277Z,91.40
2019-02-04T01:14:27.017Z,91.40
2019-02-04T01:19:56.888Z,91.40
2019-02-04T01:25:27.212Z,91.40
2019-02-04T01:30:56.944Z,91.40
2019-02-04T01:36:26.749Z,91.40
2019-02-04T01:41:56.776Z,91.40
2019-02-04T01:47:26.708Z,91.40
2019-02-04T01:52:56.446Z,91.30
2019-02-04T01:58:26.175Z,91.30
2019-02-04T02:03:56.024Z,91.30
2019-02-04T02:09:26.005Z,91.30
2019-02-04T02:14:56.182Z,91.30
2019-02-04T02:20:28.649Z,91.30
2019-02-04T02:25:59.024Z,91.40
2019-02-04T02:31:28.791Z,91.10
2019-02-04T02:36:58.597Z,91.10
2019-02-04T02:42:28.208Z,91.20
2019-02-04T02:47:58.623Z,91.10
2019-02-04T02:53:28.251Z,91.00
2019-02-04T02:59:02.529Z,91.00
2019-02-04T03:04:32.352Z,90.90
2019-02-04T03:10:02.079Z,90.90
2019-02-04T03:15:31.758Z,91.00
2019-02-04T03:21:01.320Z,90.90
2019-02-04T03:26:31.003Z,90.90
2019-02-04T03:32:00.697Z,91.00
2019-02-04T03:37:30.395Z,90.90
2019-02-04T03:42:59.917Z,90.90
2019-02-04T03:48:30.386Z,90.90
2019-02-04T03:53:59.912Z,90.90
2019-02-04T03:59:48.605Z,90.90
2019-02-04T04:05:17.881Z,90.90
2019-02-04T04:10:47.376Z,90.90
2019-02-04T04:16:16.626Z,90.90
2019-02-04T04:21:45.901Z,90.90
2019-02-04T04:27:15.180Z,90.90
2019-02-04T04:32:44.807Z,90.90
2019-02-04T04:38:14.460Z,91.00
2019-02-04T04:43:44.082Z,90.90
2019-02-04T04:49:13.363Z,90.90
2019-02-04T04:54:42.640Z,90.90
2019-02-04T05:00:16.539Z,90.90
2019-02-04T05:05:45.995Z,90.90
2019-02-04T05:11:15.276Z,90.90
2019-02-04T05:16:44.624Z,90.80
2019-02-04T05:22:13.925Z,90.90
2019-02-04T05:27:43.282Z,90.90
2019-02-04T05:33:12.768Z,90.90
2019-02-04T05:38:42.047Z,90.90
2019-02-04T05:44:11.342Z,90.90
2019-02-04T05:49:40.700Z,90.90
2019-02-04T05:55:11.202Z,90.90
2019-02-04T06:00:42.570Z,90.90
2019-02-04T06:06:11.858Z,90.80
2019-02-04T06:11:41.146Z,90.90
2019-02-04T06:17:10.425Z,90.90
2019-02-04T06:22:39.724Z,90.90
2019-02-04T06:28:09.507Z,90.90
2019-02-04T06:33:38.798Z,90.90
2019-02-04T06:39:10.601Z,90.90
2019-02-04T06:44:39.881Z,90.90
2019-02-04T06:50:20.515Z,90.90
2019-02-04T06:55:49.818Z,90.90
2019-02-04T07:01:19.217Z,90.80
2019-02-04T07:06:48.473Z,90.80
2019-02-04T07:12:17.756Z,90.90
2019-02-04T07:17:47.031Z,90.80
2019-02-04T07:23:16.705Z,90.80
2019-02-04T07:28:46.001Z,90.80
2019-02-04T07:34:15.303Z,90.80
2019-02-04T07:39:44.586Z,90.80
2019-02-04T07:45:14.405Z,90.80
2019-02-04T07:50:43.686Z,90.80
2019-02-04T07:56:12.982Z,90.90
2019-02-04T08:01:42.256Z,90.90
2019-02-04T08:07:11.554Z,90.90
2019-02-04T08:12:40.825Z,91.00
2019-02-04T08:18:10.184Z,90.90
2019-02-04T08:23:39.539Z,90.90
2019-02-04T08:29:08.818Z,90.90
2019-02-04T08:34:38.089Z,90.80
2019-02-04T08:40:12.444Z,90.60
2019-02-04T08:45:41.719Z,90.40
2019-02-04T08:51:11.155Z,90.20
2019-02-04T08:56:42.928Z,90.10
2019-02-04T09:02:11.582Z,90.00
2019-02-04T09:07:40.933Z,89.70
2019-02-04T09:13:10.227Z,89.40
2019-02-04T09:18:44.799Z,89.10
2019-02-04T09:24:10.609Z,88.90
2019-02-04T09:29:40.243Z,88.60
2019-02-04T09:35:16.405Z,88.30
2019-02-04T09:40:45.919Z,87.60
2019-02-04T09:46:15.192Z,87.20
2019-02-04T09:51:44.464Z,86.50
2019-02-04T09:57:13.739Z,86.20
2019-02-04T10:02:43.080Z,85.70
2019-02-04T10:08:12.410Z,85.50
2019-02-04T10:13:41.821Z,85.60
2019-02-04T10:19:11.141Z,84.00
2019-02-04T10:24:40.371Z,84.00
2019-02-04T10:30:17.275Z,83.60
2019-02-04T10:35:46.632Z,83.10
2019-02-04T10:41:15.988Z,83.20
2019-02-04T10:46:45.233Z,83.00
2019-02-04T10:52:14.963Z,82.40
2019-02-04T10:57:44.270Z,82.10
2019-02-04T11:03:15.258Z,81.70
2019-02-04T11:08:44.625Z,81.40
2019-02-04T11:14:13.901Z,80.90
2019-02-04T11:19:43.184Z,80.10
2019-02-04T11:25:12.875Z,80.30
2019-02-04T11:30:57.501Z,79.50
2019-02-04T11:36:27.682Z,80.00
2019-02-04T11:41:56.956Z,79.30
2019-02-04T11:47:26.233Z,79.30
2019-02-04T11:52:56.529Z,79.60
2019-02-04T11:58:25.815Z,79.70
2019-02-04T12:03:55.074Z,79.00
2019-02-04T12:09:24.354Z,78.60
2019-02-04T12:14:54.205Z,78.30
2019-02-04T12:20:23.671Z,78.80
2019-02-04T12:25:52.942Z,78.60
2019-02-04T12:31:22.239Z,78.40
2019-02-04T12:36:51.667Z,78.30
2019-02-04T12:42:21.140Z,78.30
2019-02-04T12:47:50.706Z,78.20
2019-02-04T12:53:20.001Z,77.60
2019-02-04T12:58:55.643Z,77.40
2019-02-04T13:04:20.271Z,78.30
2019-02-04T13:09:49.563Z,76.30
2019-02-04T13:15:25.091Z,75.80
2019-02-04T13:20:54.427Z,75.50
2019-02-04T13:26:25.240Z,74.50
2019-02-04T13:31:57.194Z,74.20
2019-02-04T13:37:29.055Z,73.20
2019-02-04T13:42:58.797Z,73.50
2019-02-04T13:48:28.313Z,72.80
2019-02-04T13:53:57.551Z,71.60
2019-02-04T13:59:26.825Z,69.70
2019-02-04T14:04:58.140Z,67.50
2019-02-04T14:10:42.590Z,64.20
2019-02-04T14:16:12.177Z,60.40
2019-02-04T14:21:41.532Z,59.00
2019-02-04T14:27:10.894Z,59.00
2019-02-04T14:32:47.051Z,61.30
2019-02-04T14:38:16.408Z,65.40
2019-02-04T14:43:46.113Z,67.30
2019-02-04T14:49:43.540Z,68.40
2019-02-04T14:55:50.735Z,69.00
2019-02-04T15:01:33.371Z,69.20
2019-02-04T15:07:58.138Z,69.80
2019-02-04T15:13:57.928Z,70.00
2019-02-04T15:19:53.160Z,67.60
2019-02-04T15:26:01.923Z,66.30
2019-02-04T15:31:41.690Z,65.80
2019-02-04T15:37:21.652Z,68.80
2019-02-04T15:43:16.958Z,70.00
2019-02-04T15:48:56.648Z,70.50
2019-02-04T15:54:26.171Z,70.90
2019-02-04T15:59:55.666Z,71.10
2019-02-04T16:05:25.281Z,71.20
2019-02-04T16:10:54.727Z,71.60
2019-02-04T16:16:25.422Z,71.80
2019-02-04T16:21:54.890Z,72.20
2019-02-04T16:27:24.845Z,72.40
2019-02-04T16:32:54.353Z,72.70
2019-02-04T16:38:24.015Z,73.00
2019-02-04T16:43:53.595Z,73.20
2019-02-04T16:49:23.070Z,73.50
2019-02-04T16:54:52.548Z,73.50
2019-02-04T17:00:29.179Z,73.80
2019-02-04T17:05:58.717Z,73.90
2019-02-04T17:11:28.302Z,74.10
2019-02-04T17:16:57.908Z,74.10
2019-02-04T17:22:27.400Z,74.30
2019-02-04T17:27:56.966Z,74.40
2019-02-04T17:33:26.523Z,74.80
2019-02-04T17:38:55.992Z,75.00
2019-02-04T17:44:25.397Z,75.10
2019-02-04T17:49:54.797Z,75.30
2019-02-04T17:55:31.185Z,75.50
2019-02-04T18:01:00.225Z,75.40
2019-02-04T18:06:31.643Z,75.50
2019-02-04T18:12:00.749Z,75.70
2019-02-04T18:17:30.154Z,76.50
2019-02-04T18:22:59.585Z,76.00
2019-02-04T18:28:29.368Z,75.90
2019-02-04T18:33:58.829Z,76.10
2019-02-04T18:39:28.351Z,76.20
2019-02-04T18:44:57.957Z,76.30
2019-02-04T18:50:27.816Z,76.50
2019-02-04T18:55:57.366Z,76.60
2019-02-04T19:01:27.204Z,76.60
2019-02-04T19:06:57.638Z,76.70
2019-02-04T19:12:27.241Z,76.80
2019-02-04T19:18:05.582Z,76.90
2019-02-04T19:23:35.320Z,76.90
2019-02-04T19:29:06.308Z,76.80
2019-02-04T19:34:35.804Z,76.90
2019-02-04T19:40:10.073Z,77.00
2019-02-04T19:45:45.201Z,77.10
2019-02-04T19:51:14.660Z,77.20
2019-02-04T19:56:44.266Z,77.40
2019-02-04T20:02:15.014Z,77.50
2019-02-04T20:07:44.665Z,77.50
2019-02-04T20:13:14.160Z,77.60
2019-02-04T20:18:43.696Z,77.50
2019-02-04T20:24:13.419Z,76.80
2019-02-04T20:29:43.021Z,77.40
2019-02-04T20:35:13.274Z,77.40
2019-02-04T20:40:43.108Z,77.40
2019-02-04T20:46:12.637Z,77.50
2019-02-04T20:51:42.006Z,77.70
2019-02-04T20:57:11.489Z,77.80
2019-02-04T21:02:41.006Z,78.00
2019-02-04T21:08:10.378Z,78.30
2019-02-04T21:13:40.027Z,78.40
2019-02-04T21:19:09.464Z,78.60
2019-02-04T21:24:39.099Z,78.90
2019-02-04T21:30:30.760Z,79.20
2019-02-04T21:36:01.402Z,79.50
2019-02-04T21:41:31.486Z,79.60
2019-02-04T21:47:01.480Z,79.80
2019-02-04T21:52:30.992Z,79.90
2019-02-04T21:58:00.723Z,80.10
2019-02-04T22:03:30.481Z,80.30
2019-02-04T22:09:00.384Z,80.40
2019-02-04T22:14:31.264Z,80.50
2019-02-04T22:20:01.307Z,80.60
2019-02-04T22:25:31.711Z,80.80
2019-02-04T22:31:01.550Z,80.70
2019-02-04T22:36:31.391Z,81.10
2019-02-04T22:42:01.496Z,81.00
2019-02-04T22:47:31.063Z,81.10
2019-02-04T22:53:02.239Z,81.20
2019-02-04T22:58:35.970Z,81.20
2019-02-04T23:04:08.039Z,81.20
2019-02-04T23:09:38.932Z,81.20
2019-02-04T23:15:10.885Z,81.20
2019-02-04T23:20:44.728Z,81.30
2019-02-04T23:26:16.546Z,81.40
2019-02-04T23:31:45.970Z,81.40
2019-02-04T23:37:15.642Z,81.30
2019-02-04T23:42:45.221Z,81.40
2019-02-04T23:48:14.792Z,81.50
2019-02-04T23:53:47.487Z,81.60
2019-02-04T23:59:16.897Z,81.50
